Time;durP1;ratioP1;P1;durP2;ratioP2;P2;SDS_P1;SDS_P2;PMS_P1;PMS_P2;Temp;Humidity;BMP_temperature;BMP_pressure;BME280_temperature;BME280_humidity;BME280_pressure;Samples;Min_cycle;Max_cycle;Signal;HPM_P1;HPM_P2
2021/10/22 00:01:47;;;;;;;12.25;2.58;;;7.80;99.90;;;;;;6249500;22;20450;-76
2021/10/22 00:04:13;;;;;;;14.27;2.20;;;7.90;99.90;;;;;;6249934;22;20023;-76
2021/10/22 00:06:38;;;;;;;12.27;2.30;;;8.40;99.90;;;;;;6249405;22;20434;-76
2021/10/22 00:09:04;;;;;;;18.88;3.03;;;7.70;99.90;;;;;;6223902;22;20027;-76
2021/10/22 00:11:30;;;;;;;14.35;2.10;;;7.90;99.90;;;;;;6249604;22;20026;-76
2021/10/22 00:13:56;;;;;;;13.88;2.13;;;7.80;99.90;;;;;;6224412;22;20015;-76
2021/10/22 00:16:22;;;;;;;13.20;2.45;;;7.80;99.90;;;;;;6249575;22;20501;-76
2021/10/22 00:18:48;;;;;;;15.27;2.08;;;7.80;99.90;;;;;;6223905;22;20050;-76
2021/10/22 00:21:14;;;;;;;13.93;1.98;;;7.70;99.90;;;;;;6276790;22;20043;-77
2021/10/22 00:23:39;;;;;;;16.15;2.90;;;8.60;99.90;;;;;;6276490;22;20018;-76
2021/10/22 00:26:05;;;;;;;13.02;1.92;;;7.90;99.90;;;;;;6249911;22;20334;-76
2021/10/22 00:28:31;;;;;;;18.67;2.47;;;7.70;99.90;;;;;;6224093;22;20022;-76
2021/10/22 00:30:56;;;;;;;15.20;2.45;;;7.70;99.90;;;;;;6198586;22;20090;-76
2021/10/22 00:33:22;;;;;;;8.75;2.30;;;7.70;99.90;;;;;;6223613;22;20020;-76
2021/10/22 00:35:49;;;;;;;13.15;2.17;;;8.10;99.90;;;;;;6199109;22;20430;-77
2021/10/22 00:38:15;;;;;;;17.02;2.67;;;7.80;99.90;;;;;;6224491;22;20016;-77
2021/10/22 00:40:45;;;;;;;10.73;2.20;;;7.70;99.90;;;;;;6276536;22;20383;-77
2021/10/22 00:43:15;;;;;;;17.75;2.40;;;7.90;99.90;;;;;;6275666;22;20043;-77
2021/10/22 00:45:40;;;;;;;10.95;1.92;;;7.70;99.90;;;;;;6249230;22;20020;-77
2021/10/22 00:48:06;;;;;;;12.63;2.03;;;7.70;99.90;;;;;;6224086;22;20050;-77
2021/10/22 00:50:40;;;;;;;11.88;2.60;;;7.70;99.90;;;;;;6249007;22;20012;-77
2021/10/22 00:53:06;;;;;;;14.98;2.15;;;7.70;99.90;;;;;;6249002;22;20124;-77
2021/10/22 00:55:33;;;;;;;20.17;2.28;;;8.30;99.90;;;;;;6276506;22;20008;-77
2021/10/22 00:57:59;;;;;;;11.15;2.42;;;7.70;99.90;;;;;;6224421;22;20016;-76
2021/10/22 01:00:25;;;;;;;11.38;2.15;;;8.20;99.90;;;;;;6223281;22;20099;-76
2021/10/22 01:02:51;;;;;;;16.20;2.75;;;7.70;99.90;;;;;;6198632;22;20077;-76
2021/10/22 01:05:17;;;;;;;11.70;2.28;;;8.30;99.90;;;;;;6223459;22;20345;-76
2021/10/22 01:07:46;;;;;;;15.45;2.55;;;8.00;99.90;;;;;;6198563;22;20065;-76
2021/10/22 01:10:13;;;;;;;14.32;2.45;;;7.70;99.90;;;;;;6248688;22;20461;-76
2021/10/22 01:12:40;;;;;;;13.85;2.30;;;7.70;99.90;;;;;;6248433;22;20008;-77
2021/10/22 01:15:06;;;;;;;12.75;2.70;;;7.70;99.90;;;;;;6248550;22;20315;-77
2021/10/22 01:17:39;;;;;;;19.90;2.78;;;7.70;99.90;;;;;;6248331;22;20016;-76
2021/10/22 01:20:11;;;;;;;23.77;3.22;;;7.80;99.90;;;;;;6223558;22;20015;-76
2021/10/22 01:22:38;;;;;;;11.93;2.53;;;7.80;99.90;;;;;;6248905;22;20050;-77
2021/10/22 01:25:09;;;;;;;10.18;2.55;;;7.90;99.90;;;;;;6223495;22;20019;-77
2021/10/22 01:27:35;;;;;;;15.63;2.92;;;8.00;99.90;;;;;;6248981;22;20016;-77
2021/10/22 01:30:02;;;;;;;20.63;2.72;;;8.00;99.90;;;;;;6275881;22;20502;-77
2021/10/22 01:32:28;;;;;;;20.05;2.67;;;8.00;99.90;;;;;;6223520;22;20043;-77
2021/10/22 01:34:54;;;;;;;13.15;2.10;;;9.10;99.90;;;;;;6248292;22;20461;-77
2021/10/22 01:37:20;;;;;;;19.05;2.47;;;8.10;99.90;;;;;;6275884;22;20015;-77
2021/10/22 01:39:46;;;;;;;11.93;2.13;;;8.20;99.90;;;;;;6275913;22;20023;-77
2021/10/22 01:42:11;;;;;;;21.05;2.60;;;8.20;99.90;;;;;;6223486;22;20015;-77
2021/10/22 01:44:37;;;;;;;16.42;2.63;;;8.40;99.90;;;;;;6275797;22;20047;-76
2021/10/22 01:47:03;;;;;;;13.32;2.72;;;8.20;99.90;;;;;;6248572;22;20090;-76
2021/10/22 01:49:29;;;;;;;16.17;2.67;;;8.20;99.90;;;;;;6248122;22;20043;-76
2021/10/22 01:51:55;;;;;;;15.68;2.20;;;8.20;99.90;;;;;;6248048;22;20450;-76
2021/10/22 01:54:21;;;;;;;15.00;2.20;;;8.20;99.90;;;;;;6248740;22;20007;-76
2021/10/22 01:56:47;;;;;;;16.85;2.67;;;8.90;99.90;;;;;;6248746;22;20039;-76
2021/10/22 01:59:13;;;;;;;12.82;2.08;;;8.40;99.90;;;;;;6223232;22;20434;-76
2021/10/22 02:01:38;;;;;;;16.40;2.67;;;8.80;99.90;;;;;;6248439;22;20104;-76
2021/10/22 02:04:05;;;;;;;17.15;2.72;;;8.60;99.90;;;;;;6275352;22;20076;-76
2021/10/22 02:06:31;;;;;;;15.00;2.65;;;8.20;99.90;;;;;;6248558;22;20012;-76
2021/10/22 02:08:57;;;;;;;12.95;2.13;;;8.20;99.90;;;;;;6198497;22;20095;-76
2021/10/22 02:11:28;;;;;;;12.88;2.33;;;8.20;99.90;;;;;;6223237;22;20016;-76
2021/10/22 02:13:54;;;;;;;17.90;2.65;;;8.30;99.90;;;;;;6248280;22;20392;-76
2021/10/22 02:16:20;;;;;;;12.50;2.30;;;8.30;99.90;;;;;;6223453;22;20016;-76
2021/10/22 02:18:46;;;;;;;15.35;2.20;;;8.20;99.90;;;;;;6248880;22;20007;-76
2021/10/22 02:21:12;;;;;;;20.45;3.00;;;8.20;99.90;;;;;;6222495;22;20023;-76
2021/10/22 02:23:37;;;;;;;12.52;2.40;;;8.60;99.90;;;;;;6223251;22;20015;-75
2021/10/22 02:26:03;;;;;;;18.20;2.65;;;8.30;99.90;;;;;;6275385;22;20069;-77
2021/10/22 02:28:29;;;;;;;23.35;3.17;;;8.30;99.90;;;;;;6250018;22;20012;-77
2021/10/22 02:30:55;;;;;;;16.80;2.63;;;8.40;99.90;;;;;;6250491;22;20019;-77
2021/10/22 02:33:29;;;;;;;18.02;3.25;;;8.30;99.90;;;;;;6223605;22;20022;-77
2021/10/22 02:35:55;;;;;;;13.57;2.90;;;8.30;99.90;;;;;;6199779;22;20373;-77
2021/10/22 02:38:21;;;;;;;21.83;2.50;;;8.30;99.90;;;;;;6249313;22;20091;-77
2021/10/22 02:40:46;;;;;;;25.77;3.25;;;8.30;99.90;;;;;;6250161;22;20346;-77
2021/10/22 02:43:12;;;;;;;14.82;2.25;;;8.20;99.90;;;;;;6225009;22;20437;-77
2021/10/22 02:45:38;;;;;;;11.35;2.22;;;8.20;99.90;;;;;;6277544;22;20004;-77
2021/10/22 02:48:04;;;;;;;18.15;2.72;;;8.10;99.90;;;;;;6250204;22;20028;-77
2021/10/22 02:50:30;;;;;;;17.23;3.05;;;8.10;99.90;;;;;;6250076;22;20505;-77
2021/10/22 02:52:59;;;;;;;18.30;2.70;;;8.20;99.90;;;;;;6250203;22;20085;-77
2021/10/22 02:55:24;;;;;;;10.55;2.10;;;8.10;99.90;;;;;;6249562;22;20069;-77
2021/10/22 02:57:50;;;;;;;24.77;2.80;;;8.40;99.90;;;;;;6250388;22;20012;-77
2021/10/22 03:00:16;;;;;;;19.27;2.78;;;8.00;99.90;;;;;;6224476;22;20015;-77
2021/10/22 03:02:42;;;;;;;15.57;3.28;;;8.10;99.90;;;;;;6225168;22;20015;-77
2021/10/22 03:05:11;;;;;;;14.98;2.42;;;8.10;99.90;;;;;;6277274;22;20065;-77
2021/10/22 03:07:37;;;;;;;14.20;2.25;;;8.00;99.90;;;;;;6224688;22;20427;-77
2021/10/22 03:10:05;;;;;;;17.48;2.78;;;8.00;99.90;;;;;;6277677;22;20008;-77
2021/10/22 03:12:31;;;;;;;19.48;2.15;;;8.10;99.90;;;;;;6250293;22;20082;-77
2021/10/22 03:14:57;;;;;;;15.88;2.63;;;8.10;99.90;;;;;;6224767;22;20035;-77
2021/10/22 03:17:22;;;;;;;17.50;3.03;;;8.10;99.90;;;;;;6249813;22;20019;-77
2021/10/22 03:19:48;;;;;;;13.98;2.95;;;8.50;99.90;;;;;;6250698;22;20046;-77
2021/10/22 03:22:15;;;;;;;16.80;2.92;;;9.00;99.90;;;;;;6224555;22;20016;-77
2021/10/22 03:24:41;;;;;;;12.68;2.50;;;8.70;99.90;;;;;;6224586;22;20016;-77
2021/10/22 03:27:15;;;;;;;20.25;2.80;;;8.10;99.90;;;;;;6277112;22;20016;-77
2021/10/22 03:29:41;;;;;;;17.52;2.22;;;8.10;99.90;;;;;;6276602;22;20046;-77
2021/10/22 03:32:07;;;;;;;16.77;2.75;;;8.10;99.90;;;;;;6277249;22;20027;-77
2021/10/22 03:34:33;;;;;;;18.05;2.90;;;8.40;99.90;;;;;;6249670;22;20019;-77
2021/10/22 03:36:58;;;;;;;17.48;2.83;;;8.50;99.90;;;;;;6249945;22;20007;-76
2021/10/22 03:39:24;;;;;;;27.20;3.38;;;8.30;99.90;;;;;;6276634;22;20012;-75
2021/10/22 03:41:50;;;;;;;20.95;3.00;;;8.10;99.90;;;;;;6224307;22;20046;-75
2021/10/22 03:44:15;;;;;;;28.10;3.20;;;8.10;99.90;;;;;;6249669;22;20016;-75
2021/10/22 03:46:41;;;;;;;19.95;3.03;;;8.10;99.90;;;;;;6198318;22;20083;-75
2021/10/22 03:49:07;;;;;;;15.68;2.60;;;8.60;99.90;;;;;;6224361;22;20066;-75
2021/10/22 03:51:33;;;;;;;17.85;2.42;;;8.10;99.90;;;;;;6277174;22;20007;-75
2021/10/22 03:53:59;;;;;;;15.65;2.25;;;8.10;99.90;;;;;;6224389;22;20011;-75
2021/10/22 03:56:25;;;;;;;19.98;2.53;;;8.10;99.90;;;;;;6276739;22;20456;-75
2021/10/22 03:58:51;;;;;;;15.93;2.67;;;8.10;99.90;;;;;;6199206;22;20039;-76
2021/10/22 04:01:17;;;;;;;16.13;2.83;;;8.10;99.90;;;;;;6249139;22;20015;-76
2021/10/22 04:03:43;;;;;;;18.05;2.30;;;8.20;99.90;;;;;;6277298;22;20008;-76
2021/10/22 04:06:09;;;;;;;12.48;2.38;;;9.20;99.90;;;;;;6199590;22;20026;-76
2021/10/22 04:08:34;;;;;;;14.65;2.58;;;8.20;99.90;;;;;;6249328;22;20016;-76
2021/10/22 04:11:00;;;;;;;17.73;2.33;;;8.30;99.90;;;;;;6247854;22;20074;-76
2021/10/22 04:13:26;;;;;;;19.80;2.28;;;8.40;99.90;;;;;;6248781;22;20011;-76
2021/10/22 04:15:52;;;;;;;25.08;2.72;;;9.10;99.90;;;;;;6224462;22;20058;-75
2021/10/22 04:18:17;;;;;;;17.02;2.92;;;9.10;99.90;;;;;;6249602;22;20015;-75
2021/10/22 04:20:43;;;;;;;14.07;2.70;;;8.40;99.90;;;;;;6276700;22;20015;-75
2021/10/22 04:23:10;;;;;;;13.43;2.45;;;8.40;99.90;;;;;;6276302;22;20091;-75
2021/10/22 04:25:36;;;;;;;14.30;2.40;;;8.30;99.90;;;;;;6249398;22;20065;-75
2021/10/22 04:28:03;;;;;;;14.18;2.78;;;8.40;99.90;;;;;;6248784;22;20015;-74
2021/10/22 04:30:29;;;;;;;19.85;3.13;;;8.30;99.90;;;;;;6224088;22;20012;-75
2021/10/22 04:32:55;;;;;;;12.25;2.08;;;8.30;99.90;;;;;;6249374;22;20016;-75
2021/10/22 04:35:21;;;;;;;19.63;2.70;;;8.30;99.90;;;;;;6276509;22;20055;-75
2021/10/22 04:38:02;;;;;;;17.85;2.90;;;8.40;99.90;;;;;;6223963;22;20008;-75
2021/10/22 04:40:35;;;;;;;15.55;2.38;;;8.30;99.90;;;;;;6249284;22;20047;-75
2021/10/22 04:43:06;;;;;;;15.55;2.55;;;8.30;99.90;;;;;;6199584;22;20071;-75
2021/10/22 04:45:34;;;;;;;16.02;2.90;;;8.30;99.90;;;;;;6276095;22;20294;-75
2021/10/22 04:48:05;;;;;;;20.15;2.70;;;7.80;99.90;;;;;;6249071;22;20433;-75
2021/10/22 04:50:32;;;;;;;15.50;2.40;;;8.30;99.90;;;;;;6248794;22;20012;-75
2021/10/22 04:52:58;;;;;;;15.05;2.63;;;8.30;99.90;;;;;;6224042;22;20338;-75
2021/10/22 04:55:26;;;;;;;15.85;2.30;;;8.30;99.90;;;;;;6249020;22;20397;-75
2021/10/22 04:57:53;;;;;;;14.68;2.30;;;8.30;99.90;;;;;;6249160;22;20063;-75
2021/10/22 05:00:20;;;;;;;18.55;2.63;;;8.30;99.90;;;;;;6248098;22;20094;-75
2021/10/22 05:02:46;;;;;;;13.65;2.78;;;8.40;99.90;;;;;;6276571;22;20014;-75
2021/10/22 05:05:12;;;;;;;15.85;2.55;;;8.40;99.90;;;;;;6249289;22;20039;-75
2021/10/22 05:07:40;;;;;;;15.70;2.63;;;8.40;99.90;;;;;;6276288;22;20019;-75
2021/10/22 05:10:07;;;;;;;14.50;2.50;;;8.40;99.90;;;;;;6275789;22;20016;-75
2021/10/22 05:12:33;;;;;;;14.38;2.40;;;8.30;99.90;;;;;;6249124;22;20065;-75
2021/10/22 05:15:03;;;;;;;20.85;2.42;;;8.10;99.90;;;;;;6247983;22;20509;-75
2021/10/22 05:17:29;;;;;;;17.65;2.28;;;8.40;99.90;;;;;;6249240;22;20019;-76
2021/10/22 05:19:55;;;;;;;19.60;2.30;;;8.40;99.90;;;;;;6223593;22;20007;-76
2021/10/22 05:22:21;;;;;;;12.73;2.33;;;8.50;99.90;;;;;;6248854;22;20020;-76
2021/10/22 05:24:50;;;;;;;27.15;3.13;;;8.40;99.90;;;;;;6249969;22;20012;-75
2021/10/22 05:27:16;;;;;;;22.02;2.78;;;8.30;99.90;;;;;;6248503;22;20081;-75
2021/10/22 05:29:42;;;;;;;21.70;2.85;;;8.40;99.90;;;;;;6247833;22;20011;-76
2021/10/22 05:32:07;;;;;;;19.08;2.17;;;8.70;99.90;;;;;;6248431;22;20048;-76
2021/10/22 05:34:33;;;;;;;18.13;2.35;;;8.40;99.90;;;;;;6249030;22;20335;-76
2021/10/22 05:36:59;;;;;;;17.63;2.30;;;8.40;99.90;;;;;;6248854;22;20016;-77
2021/10/22 05:39:25;;;;;;;19.50;2.95;;;8.50;99.90;;;;;;6276125;22;20011;-76
2021/10/22 05:41:51;;;;;;;18.70;2.95;;;9.50;99.90;;;;;;6248828;22;20011;-77
2021/10/22 05:44:19;;;;;;;17.30;2.60;;;8.50;99.90;;;;;;6248990;22;20018;-77
2021/10/22 05:46:51;;;;;;;16.15;2.53;;;8.50;99.90;;;;;;6247862;22;20016;-77
2021/10/22 05:49:17;;;;;;;14.52;2.47;;;8.50;99.90;;;;;;6248516;22;20130;-77
2021/10/22 05:51:42;;;;;;;18.45;2.13;;;8.50;99.90;;;;;;6248302;22;20426;-77
2021/10/22 05:54:08;;;;;;;21.80;2.90;;;9.00;99.90;;;;;;6248740;22;20014;-76
2021/10/22 05:56:34;;;;;;;15.43;2.47;;;8.60;99.90;;;;;;6275594;22;20015;-76
2021/10/22 05:59:00;;;;;;;16.27;3.13;;;8.60;99.90;;;;;;6223593;22;20457;-76
2021/10/22 06:01:26;;;;;;;14.02;2.20;;;8.50;99.90;;;;;;6275600;22;20026;-76
2021/10/22 06:03:51;;;;;;;14.98;2.80;;;8.50;99.90;;;;;;6222964;22;20106;-76
2021/10/22 06:06:17;;;;;;;10.18;1.95;;;8.50;99.90;;;;;;6249076;22;20007;-76
2021/10/22 06:08:43;;;;;;;17.00;2.70;;;8.50;99.90;;;;;;6223402;22;20080;-76
2021/10/22 06:11:12;;;;;;;19.88;2.97;;;9.10;99.90;;;;;;6248555;22;20016;-76
2021/10/22 06:13:39;;;;;;;19.95;2.55;;;9.10;99.90;;;;;;6276054;22;20008;-76
2021/10/22 06:16:05;;;;;;;15.20;2.63;;;8.50;99.90;;;;;;6248562;22;20039;-76
2021/10/22 06:18:32;;;;;;;14.13;2.83;;;8.50;99.90;;;;;;6248844;22;20338;-76
2021/10/22 06:21:06;;;;;;;11.65;2.10;;;8.50;99.90;;;;;;6247494;22;20015;-76
2021/10/22 06:26:16;;;;;;;16.15;2.40;;;8.50;99.90;;;;;;6247855;22;20066;-71
2021/10/22 06:28:42;;;;;;;11.98;3.00;;;8.50;99.90;;;;;;6275273;22;20120;-71
2021/10/22 06:31:08;;;;;;;18.67;2.25;;;8.40;99.90;;;;;;6247904;22;20027;-72
2021/10/22 06:33:34;;;;;;;15.75;2.17;;;8.40;99.90;;;;;;6248179;22;20015;-71
2021/10/22 06:36:00;;;;;;;13.43;2.22;;;8.50;99.90;;;;;;6223035;22;20015;-72
2021/10/22 06:38:26;;;;;;;12.60;2.38;;;8.40;99.90;;;;;;6248642;22;20487;-73
2021/10/22 06:40:54;;;;;;;27.23;2.80;;;8.40;99.90;;;;;;6248691;22;20019;-73
2021/10/22 06:43:21;;;;;;;13.13;3.15;;;8.40;99.90;;;;;;6276022;22;20385;-73
2021/10/22 06:45:48;;;;;;;17.17;2.83;;;8.50;99.90;;;;;;6275520;22;20011;-73
2021/10/22 06:48:13;;;;;;;18.27;3.28;;;8.40;99.90;;;;;;6276003;22;20012;-73
2021/10/22 06:50:39;;;;;;;16.63;2.78;;;8.40;99.90;;;;;;6249611;22;20030;-73
2021/10/22 06:53:07;;;;;;;17.00;3.00;;;8.40;99.90;;;;;;6276189;22;20012;-73
2021/10/22 06:55:33;;;;;;;25.52;3.15;;;8.50;99.90;;;;;;6225083;22;20014;-72
2021/10/22 06:58:03;;;;;;;14.80;2.80;;;8.50;99.90;;;;;;6223292;22;20437;-73
2021/10/22 07:00:29;;;;;;;28.20;3.70;;;8.50;99.90;;;;;;6275584;22;20026;-73
2021/10/22 07:02:55;;;;;;;19.80;3.40;;;8.50;99.90;;;;;;6223193;22;20016;-73
2021/10/22 07:07:59;;;;;;;16.90;3.15;;;9.40;99.90;;;;;;6244038;22;20031;-71
2021/10/22 07:10:25;;;;;;;20.85;3.15;;;8.90;99.90;;;;;;6272321;22;20042;-71
2021/10/22 07:12:51;;;;;;;18.90;2.92;;;9.20;99.90;;;;;;6245186;22;20020;-73
2021/10/22 07:15:17;;;;;;;19.70;3.30;;;8.90;99.90;;;;;;6274565;22;20014;-74
2021/10/22 07:17:45;;;;;;;19.80;3.10;;;9.60;99.90;;;;;;6275108;22;20034;-74
2021/10/22 07:20:12;;;;;;;27.42;3.70;;;8.80;99.90;;;;;;6247418;22;20377;-74
2021/10/22 07:22:47;;;;;;;18.17;2.90;;;8.80;99.90;;;;;;6274492;22;20342;-74
2021/10/22 07:25:14;;;;;;;17.83;3.30;;;8.90;99.90;;;;;;6246805;22;20019;-74
2021/10/22 07:27:40;;;;;;;21.52;3.45;;;9.10;99.90;;;;;;6274855;22;20043;-74
2021/10/22 07:30:06;;;;;;;25.60;3.30;;;9.00;99.90;;;;;;6274725;22;20061;-74
2021/10/22 07:32:32;;;;;;;22.30;3.60;;;9.00;99.90;;;;;;6246976;22;20512;-74
2021/10/22 07:34:58;;;;;;;16.88;2.70;;;9.00;99.90;;;;;;6274553;22;20015;-74
2021/10/22 07:37:24;;;;;;;21.42;2.90;;;9.10;99.90;;;;;;6247328;22;20511;-74
2021/10/22 07:39:51;;;;;;;21.08;3.15;;;9.30;99.90;;;;;;6221722;22;20043;-71
2021/10/22 07:42:17;;;;;;;18.45;3.13;;;9.40;99.90;;;;;;6221651;22;20024;-74
2021/10/22 07:44:42;;;;;;;20.65;3.33;;;9.40;99.90;;;;;;6274579;22;20018;-74
2021/10/22 07:47:08;;;;;;;17.70;4.45;;;9.10;99.90;;;;;;6247670;22;20016;-70
2021/10/22 07:49:34;;;;;;;24.98;3.88;;;9.10;99.90;;;;;;6274373;22;20087;-70
2021/10/22 07:51:59;;;;;;;20.50;3.53;;;9.00;99.90;;;;;;6274097;22;20015;-75
2021/10/22 07:54:25;;;;;;;20.65;3.30;;;9.30;99.90;;;;;;6275047;22;20038;-75
2021/10/22 07:56:51;;;;;;;21.27;2.78;;;9.10;99.90;;;;;;6273500;22;20438;-75
2021/10/22 07:59:17;;;;;;;16.48;2.53;;;8.80;99.90;;;;;;6246964;22;20014;-70
2021/10/22 08:01:44;;;;;;;14.52;2.60;;;8.80;99.90;;;;;;6246723;22;20315;-76
2021/10/22 08:04:13;;;;;;;21.38;2.70;;;8.70;99.90;;;;;;6246816;22;20015;-76
2021/10/22 08:06:41;;;;;;;17.75;1.92;;;8.70;99.90;;;;;;6246753;22;20045;-76
2021/10/22 08:09:07;;;;;;;17.45;2.50;;;8.70;99.90;;;;;;6221369;22;20016;-80
2021/10/22 08:11:34;;;;;;;14.45;3.05;;;8.70;99.90;;;;;;6246318;22;20319;-81
2021/10/22 08:14:00;;;;;;;13.77;3.13;;;8.70;99.90;;;;;;6246752;22;20106;-80
2021/10/22 08:16:26;;;;;;;10.70;2.97;;;8.70;99.90;;;;;;6221207;22;20016;-76
2021/10/22 08:18:52;;;;;;;18.27;3.20;;;8.80;99.90;;;;;;6247317;22;20012;-81
2021/10/22 08:24:12;;;;;;;19.38;2.90;;;8.80;99.90;;;;;;6184857;22;20024;-80
2021/10/22 08:26:38;;;;;;;13.18;2.40;;;8.80;99.90;;;;;;6246291;22;20012;-81
2021/10/22 08:29:04;;;;;;;20.30;3.03;;;8.80;99.90;;;;;;6246550;22;20072;-80
2021/10/22 08:31:30;;;;;;;15.65;2.53;;;8.80;99.90;;;;;;6171436;22;20090;-80
2021/10/22 08:33:57;;;;;;;19.58;2.25;;;8.80;99.90;;;;;;6221094;22;20065;-70
2021/10/22 08:36:22;;;;;;;23.63;3.13;;;8.90;99.90;;;;;;6273901;22;20011;-76
2021/10/22 08:38:48;;;;;;;19.02;2.60;;;8.90;99.90;;;;;;6247155;22;20487;-76
2021/10/22 08:41:16;;;;;;;16.15;2.80;;;9.20;99.90;;;;;;6246710;22;20030;-76
2021/10/22 08:43:45;;;;;;;22.10;2.70;;;9.00;99.90;;;;;;6274503;22;20333;-77
2021/10/22 08:46:17;;;;;;;20.73;2.90;;;9.00;99.90;;;;;;6273301;22;20384;-81
2021/10/22 08:48:43;;;;;;;15.95;2.92;;;9.30;99.90;;;;;;6246997;22;20450;-81
2021/10/22 08:51:09;;;;;;;16.08;3.17;;;9.20;99.90;;;;;;6221223;22;20019;-81
2021/10/22 08:53:36;;;;;;;20.77;2.83;;;9.70;99.90;;;;;;6246581;22;20012;-81
2021/10/22 08:56:05;;;;;;;15.52;2.90;;;9.20;99.90;;;;;;6246362;22;20081;-81
2021/10/22 08:58:31;;;;;;;19.85;3.10;;;9.30;99.90;;;;;;6220967;22;20008;-81
2021/10/22 09:00:58;;;;;;;14.93;2.70;;;9.30;99.90;;;;;;6221010;22;20055;-81
2021/10/22 09:03:40;;;;;;;10.48;2.83;;;9.40;99.90;;;;;;6196573;22;20586;-81
2021/10/22 09:06:17;;;;;;;16.73;2.28;;;9.40;99.90;;;;;;6273341;22;20012;-81
2021/10/22 09:08:45;;;;;;;20.45;2.60;;;9.50;99.90;;;;;;6220958;22;20350;-76
2021/10/22 09:11:27;;;;;;;14.30;2.53;;;9.70;99.90;;;;;;6245854;22;20567;-76
2021/10/22 09:14:05;;;;;;;21.15;3.08;;;9.70;99.90;;;;;;6273400;22;20008;-76
2021/10/22 09:16:39;;;;;;;22.05;3.10;;;9.70;99.90;;;;;;6272950;22;20012;-76
2021/10/22 09:19:05;;;;;;;22.80;4.10;;;9.80;99.90;;;;;;6273209;22;20010;-76
2021/10/22 09:21:32;;;;;;;29.15;3.75;;;9.90;99.90;;;;;;6246062;22;20442;-76
2021/10/22 09:24:20;;;;;;;34.35;3.80;;;10.00;99.90;;;;;;6220391;22;20330;-76
2021/10/22 09:26:57;;;;;;;21.77;3.20;;;10.00;99.90;;;;;;6273603;22;20012;-76
2021/10/22 09:29:28;;;;;;;19.42;2.80;;;9.90;99.90;;;;;;6220945;22;20015;-76
2021/10/22 09:31:57;;;;;;;16.80;2.50;;;9.70;99.90;;;;;;6272948;22;20472;-76
2021/10/22 09:34:35;;;;;;;17.70;2.60;;;9.70;99.90;;;;;;6245081;22;20047;-81
2021/10/22 09:37:02;;;;;;;17.65;2.13;;;9.70;99.90;;;;;;6220902;22;20400;-81
2021/10/22 09:39:34;;;;;;;13.57;2.75;;;9.20;99.90;;;;;;6273522;22;20010;-81
2021/10/22 09:42:01;;;;;;;11.32;1.95;;;9.10;99.90;;;;;;6220495;22;20016;-81
2021/10/22 09:44:28;;;;;;;21.30;2.88;;;9.00;99.90;;;;;;6195738;22;20453;-71
2021/10/22 09:47:06;;;;;;;20.30;2.80;;;8.90;99.90;;;;;;6272749;22;20016;-75
2021/10/22 09:49:40;;;;;;;15.52;2.97;;;8.90;99.90;;;;;;6245597;22;20067;-74
2021/10/22 09:52:14;;;;;;;12.52;1.70;;;9.00;99.90;;;;;;6245667;22;20121;-75
2021/10/22 09:54:40;;;;;;;13.27;1.90;;;8.80;99.90;;;;;;6246097;22;20022;-74
2021/10/22 09:57:07;;;;;;;18.25;2.35;;;8.80;99.90;;;;;;6273666;22;20011;-78
2021/10/22 09:59:33;;;;;;;11.82;2.08;;;8.80;99.90;;;;;;6221094;22;20434;-77
2021/10/22 10:02:01;;;;;;;22.35;2.40;;;8.80;99.90;;;;;;6246041;22;20016;-77
2021/10/22 10:04:28;;;;;;;17.95;3.10;;;8.80;99.90;;;;;;6274698;22;20102;-77
2021/10/22 10:06:55;;;;;;;16.50;2.75;;;8.80;99.90;;;;;;6223310;22;20028;-76
2021/10/22 10:09:23;;;;;;;21.38;2.95;;;8.90;99.90;;;;;;6276221;22;20134;-77
2021/10/22 10:11:50;;;;;;;13.65;2.25;;;9.00;99.90;;;;;;6223200;22;20020;-74
2021/10/22 10:14:17;;;;;;;21.35;3.05;;;8.90;99.90;;;;;;6223481;22;20094;-74
2021/10/22 10:16:45;;;;;;;18.73;2.45;;;8.90;99.90;;;;;;6248117;22;20014;-77
2021/10/22 10:19:29;;;;;;;17.20;2.35;;;9.20;99.90;;;;;;6223461;22;20143;-77
2021/10/22 10:22:05;;;;;;;17.75;2.40;;;9.00;99.90;;;;;;6248449;22;20445;-73
2021/10/22 10:24:40;;;;;;;15.45;2.33;;;9.00;99.90;;;;;;6248368;22;20020;-76
2021/10/22 10:27:09;;;;;;;17.85;3.35;;;9.00;99.90;;;;;;6223303;22;20020;-74
2021/10/22 10:29:50;;;;;;;19.65;2.25;;;9.00;99.90;;;;;;6223638;22;20423;-74
2021/10/22 10:32:24;;;;;;;18.65;2.58;;;9.00;99.90;;;;;;6247792;22;20022;-74
2021/10/22 10:34:58;;;;;;;18.25;2.67;;;9.00;99.90;;;;;;6248550;22;20043;-74
2021/10/22 10:37:27;;;;;;;17.15;2.60;;;9.10;99.90;;;;;;6248126;22;20341;-73
2021/10/22 10:40:20;;;;;;;25.33;3.85;;;9.10;99.90;;;;;;6223673;22;20018;-77
2021/10/22 10:42:54;;;;;;;25.02;3.08;;;9.10;99.90;;;;;;6207746;22;20015;-77
2021/10/22 10:45:23;;;;;;;29.52;3.45;;;9.10;99.90;;;;;;6275818;22;20016;-77
2021/10/22 10:48:05;;;;;;;25.75;3.60;;;9.20;99.90;;;;;;6275875;22;20020;-77
2021/10/22 10:50:41;;;;;;;25.98;2.83;;;9.20;99.90;;;;;;6250312;22;20020;-77
2021/10/22 10:53:14;;;;;;;27.63;3.42;;;9.40;99.90;;;;;;6224901;22;20018;-76
2021/10/22 10:55:44;;;;;;;23.95;3.72;;;9.40;99.90;;;;;;6251006;22;20034;-77
2021/10/22 10:58:10;;;;;;;27.52;3.00;;;9.40;99.90;;;;;;6277805;22;20078;-77
2021/10/22 11:00:37;;;;;;;22.35;3.00;;;9.40;99.90;;;;;;6225192;22;20043;-77
2021/10/22 11:03:03;;;;;;;16.58;2.70;;;9.40;99.90;;;;;;6250391;22;20011;-77
2021/10/22 11:08:33;;;;;;;15.82;2.72;;;9.30;99.90;;;;;;6277813;22;20066;-77
2021/10/22 11:11:39;;;;;;;19.30;2.92;;;9.20;99.90;;;;;;6230801;22;20026;-77
2021/10/22 11:14:06;;;;;;;14.88;2.20;;;9.00;99.90;;;;;;6277151;22;20380;-77
2021/10/22 11:16:41;;;;;;;15.63;2.17;;;8.90;99.90;;;;;;6248654;22;20012;-77
2021/10/22 11:19:32;;;;;;;17.27;2.85;;;8.80;99.90;;;;;;6225016;22;20008;-77
2021/10/22 11:22:02;;;;;;;17.73;3.38;;;8.80;99.90;;;;;;6250493;22;20019;-77
2021/10/22 11:24:33;;;;;;;21.13;2.78;;;9.00;99.90;;;;;;6250131;22;20022;-77
2021/10/22 11:27:01;;;;;;;18.13;2.60;;;8.80;99.90;;;;;;6250224;22;20016;-77
2021/10/22 11:29:29;;;;;;;19.52;2.42;;;8.90;99.90;;;;;;6250620;22;20011;-77
2021/10/22 11:32:02;;;;;;;16.13;3.10;;;8.90;99.90;;;;;;6249202;22;20016;-77
2021/10/22 11:34:39;;;;;;;11.25;1.95;;;9.00;99.90;;;;;;6249511;22;20098;-75
2021/10/22 11:37:15;;;;;;;14.90;2.72;;;9.00;99.90;;;;;;6245959;22;20015;-80
2021/10/22 11:39:51;;;;;;;;;;;9.10;99.90;;;;;;6245502;22;20086;-80
2021/10/22 11:42:19;;;;;;;11.82;2.30;;;9.10;99.90;;;;;;6247540;22;20292;-80
2021/10/22 11:44:47;;;;;;;20.55;3.35;;;9.10;99.90;;;;;;6247900;22;20102;-80
2021/10/22 11:47:13;;;;;;;18.02;3.30;;;9.20;99.90;;;;;;6247186;22;20590;-76
2021/10/22 11:49:40;;;;;;;19.48;3.03;;;9.30;99.90;;;;;;6273807;22;20016;-76
2021/10/22 11:52:09;;;;;;;20.88;2.80;;;9.20;99.90;;;;;;6274162;22;20410;-76
2021/10/22 11:54:39;;;;;;;16.90;2.50;;;9.30;99.90;;;;;;6247043;22;20019;-79
2021/10/22 11:57:12;;;;;;;25.48;2.67;;;9.30;99.90;;;;;;6222031;22;20016;-80
2021/10/22 12:00:07;;;;;;;16.88;3.00;;;9.40;99.90;;;;;;6246566;22;20015;-80
2021/10/22 12:02:33;;;;;;;19.40;2.67;;;9.40;99.90;;;;;;6242051;22;20027;-80
2021/10/22 12:05:02;;;;;;;22.42;2.88;;;9.40;99.90;;;;;;6222174;22;20022;-80
2021/10/22 12:07:30;;;;;;;19.55;3.10;;;9.40;99.90;;;;;;6246516;22;20026;-76
2021/10/22 12:09:56;;;;;;;16.52;2.80;;;9.30;99.90;;;;;;6274363;22;20468;-70
2021/10/22 12:12:23;;;;;;;22.05;2.65;;;9.40;99.90;;;;;;6274276;22;20023;-70
2021/10/22 12:14:51;;;;;;;15.82;2.78;;;9.20;99.90;;;;;;6248441;22;20019;-70
2021/10/22 12:17:24;;;;;;;21.60;3.30;;;9.40;99.90;;;;;;6274315;22;20015;-72
2021/10/22 12:19:53;;;;;;;23.00;3.00;;;9.20;99.90;;;;;;6274362;22;20003;-70
2021/10/22 12:22:33;;;;;;;13.93;2.70;;;9.20;99.90;;;;;;6246720;22;20368;-70
2021/10/22 12:25:17;;;;;;;17.23;2.25;;;9.20;99.90;;;;;;6275178;22;20026;-73
2021/10/22 12:27:54;;;;;;;20.48;2.85;;;9.20;99.90;;;;;;6247461;22;20019;-74
2021/10/22 12:30:27;;;;;;;18.80;3.05;;;9.20;99.90;;;;;;6248873;22;20016;-77
2021/10/22 12:33:09;;;;;;;15.48;1.85;;;9.30;99.90;;;;;;6276931;22;20018;-76
2021/10/22 12:35:46;;;;;;;17.42;2.72;;;9.40;99.90;;;;;;6249861;22;20448;-77
2021/10/22 12:38:17;;;;;;;18.05;2.90;;;9.50;99.90;;;;;;6249287;22;20016;-77
2021/10/22 12:40:51;;;;;;;20.30;2.28;;;9.60;99.90;;;;;;6248810;22;20023;-77
2021/10/22 12:43:24;;;;;;;12.80;2.40;;;9.70;99.90;;;;;;6249466;22;20081;-77
2021/10/22 12:46:00;;;;;;;17.65;2.40;;;9.80;99.90;;;;;;6249462;22;20016;-77
2021/10/22 12:48:26;;;;;;;;;;;9.70;99.90;;;;;;6249998;22;20349;-77
2021/10/22 12:50:52;;;;;;;18.10;2.70;;;9.70;99.90;;;;;;6249059;22;19915;-77
2021/10/22 12:53:29;;;;;;;23.27;3.22;;;9.60;99.90;;;;;;6224055;22;20019;-77
2021/10/22 12:56:08;;;;;;;17.55;2.95;;;9.60;99.90;;;;;;6249629;22;20448;-77
2021/10/22 12:58:36;;;;;;;26.17;2.88;;;9.60;99.90;;;;;;6249471;22;20345;-77
2021/10/22 13:01:17;;;;;;;17.33;2.20;;;9.60;99.90;;;;;;6276595;22;20011;-77
2021/10/22 13:03:48;;;;;;;11.25;2.22;;;9.70;99.90;;;;;;6276288;22;20018;-77
2021/10/22 13:06:39;;;;;;;11.98;2.40;;;9.80;99.90;;;;;;6276542;22;20008;-77